createdAt,value
2017-09-04T00:00:02.597Z,19.17
2017-09-04T00:00:30.588Z,19.19
2017-09-04T00:00:58.706Z,19.08
2017-09-04T00:01:26.716Z,19.17
2017-09-04T00:01:54.628Z,19.2
2017-09-04T00:02:22.455Z,19.09
2017-09-04T00:02:50.499Z,19.09
2017-09-04T00:03:18.496Z,19.11
2017-09-04T00:03:46.496Z,19.05
2017-09-04T00:04:14.379Z,19.08
2017-09-04T00:04:42.385Z,19.08
2017-09-04T00:05:10.308Z,19.17
2017-09-04T00:05:38.420Z,19.16
2017-09-04T00:06:06.512Z,19.15
2017-09-04T00:06:34.612Z,19.08
2017-09-04T00:07:02.701Z,19.11
2017-09-04T00:07:30.798Z,19.16
2017-09-04T00:07:58.909Z,19.15
2017-09-04T00:08:27.005Z,19.05
2017-09-04T00:08:55.124Z,19.09
2017-09-04T00:09:23.152Z,19.19
2017-09-04T00:09:51.148Z,19.07
2017-09-04T00:10:19.254Z,19.2
2017-09-04T00:10:47.249Z,19.17
2017-09-04T00:11:15.165Z,19.19
2017-09-04T00:11:43.170Z,19.15
2017-09-04T00:12:11.286Z,19.24
2017-09-04T00:12:39.259Z,19.19
2017-09-04T00:13:07.155Z,19.17
2017-09-04T00:13:35.249Z,19.16
2017-09-04T00:14:03.373Z,19.23
2017-09-04T00:14:31.476Z,19.22
2017-09-04T00:14:59.369Z,19.19
2017-09-04T00:15:27.277Z,19.2
2017-09-04T00:15:55.305Z,19.19
2017-09-04T00:16:23.308Z,19.15
2017-09-04T00:16:51.402Z,19.2
2017-09-04T00:17:19.526Z,19.16
2017-09-04T00:17:47.435Z,19.26
2017-09-04T00:18:15.355Z,19.19
2017-09-04T00:18:43.355Z,19.27
2017-09-04T00:19:11.332Z,19.22
2017-09-04T00:19:39.463Z,19.19
2017-09-04T00:20:07.469Z,19.2
2017-09-04T00:20:35.311Z,19.15
2017-09-04T00:21:03.429Z,19.19
2017-09-04T00:21:31.442Z,19.22
2017-09-04T00:21:59.731Z,19.22
2017-09-04T00:22:27.664Z,19.26
2017-09-04T00:22:55.652Z,19.16
2017-09-04T00:23:23.771Z,19.27
2017-09-04T00:23:51.788Z,19.22
2017-09-04T00:24:34.280Z,19.24
2017-09-04T00:25:02.400Z,19.32
2017-09-04T00:25:30.418Z,19.3
2017-09-04T00:25:58.429Z,19.27
2017-09-04T00:26:26.538Z,19.27
2017-09-04T00:26:54.553Z,19.26
2017-09-04T00:27:22.659Z,19.29
2017-09-04T00:27:50.670Z,19.22
2017-09-04T00:28:18.699Z,19.3
2017-09-04T00:28:46.700Z,19.38
2017-09-04T00:29:14.702Z,19.27
2017-09-04T00:29:42.729Z,19.34
2017-09-04T00:30:10.744Z,19.38
2017-09-04T00:30:39.599Z,19.37
2017-09-04T00:31:08.990Z,19.42
2017-09-04T00:31:38.030Z,19.37
2017-09-04T00:32:06.514Z,19.34
2017-09-04T00:32:34.511Z,19.44
2017-09-04T00:33:03.678Z,19.42
2017-09-04T00:33:31.796Z,19.37
2017-09-04T00:33:59.749Z,19.3
2017-09-04T00:34:27.689Z,19.34
2017-09-04T00:34:55.693Z,19.39
2017-09-04T00:35:23.833Z,19.34
2017-09-04T00:35:51.969Z,19.44
2017-09-04T00:36:20.003Z,19.39
2017-09-04T00:36:48.007Z,19.26
2017-09-04T00:37:15.996Z,19.34
2017-09-04T00:37:43.906Z,19.35
2017-09-04T00:38:11.808Z,19.29
2017-09-04T00:38:39.716Z,19.29
2017-09-04T00:39:07.699Z,19.3
2017-09-04T00:39:35.597Z,19.29
2017-09-04T00:40:03.741Z,19.26
2017-09-04T00:40:31.851Z,19.34
2017-09-04T00:40:59.658Z,19.27
2017-09-04T00:41:27.701Z,19.32
2017-09-04T00:41:55.711Z,19.34
2017-09-04T00:42:24.062Z,19.24
2017-09-04T00:42:52.152Z,19.22
2017-09-04T00:43:20.170Z,19.3
2017-09-04T00:43:48.280Z,19.24
2017-09-04T00:44:16.283Z,19.3
2017-09-04T00:44:44.186Z,19.22
2017-09-04T00:45:12.212Z,19.3
2017-09-04T00:45:40.224Z,19.24
2017-09-04T00:46:08.230Z,19.19
2017-09-04T00:46:36.250Z,19.22
2017-09-04T00:47:04.263Z,19.22
2017-09-04T00:47:32.295Z,19.24
2017-09-04T00:48:00.389Z,19.22
2017-09-04T00:48:28.538Z,19.24
2017-09-04T00:48:56.539Z,19.24
2017-09-04T00:49:24.542Z,19.19
2017-09-04T00:49:52.638Z,19.22
2017-09-04T00:50:20.648Z,19.23
2017-09-04T00:50:48.756Z,19.2
2017-09-04T00:51:16.644Z,19.19
2017-09-04T00:51:44.444Z,19.17
2017-09-04T00:52:12.550Z,19.2
2017-09-04T00:52:40.536Z,19.09
2017-09-04T00:53:08.539Z,19.17
2017-09-04T00:53:36.548Z,19.16
2017-09-04T00:54:04.572Z,19.08
2017-09-04T00:54:32.680Z,19.07
2017-09-04T00:55:00.694Z,19.11
2017-09-04T00:55:28.797Z,19.08
2017-09-04T00:55:56.792Z,19.08
2017-09-04T00:56:24.873Z,19.05
2017-09-04T00:56:52.894Z,19.09
2017-09-04T00:57:21.353Z,19
2017-09-04T00:57:49.244Z,19.07
2017-09-04T00:58:17.339Z,19.05
2017-09-04T00:58:45.426Z,18.96
2017-09-04T00:59:13.223Z,19
2017-09-04T00:59:41.205Z,19
2017-09-04T01:00:09.209Z,19.04
2017-09-04T01:00:37.224Z,18.96
2017-09-04T01:01:05.248Z,19
2017-09-04T01:01:33.157Z,19
2017-09-04T01:02:01.257Z,19.05
2017-09-04T01:02:29.373Z,18.94
2017-09-04T01:02:57.368Z,19.04
2017-09-04T01:03:25.098Z,19.05
2017-09-04T01:03:53.217Z,19.01
2017-09-04T01:04:21.240Z,18.97
2017-09-04T01:04:49.218Z,18.97
2017-09-04T01:05:17.134Z,18.89
2017-09-04T01:05:45.252Z,18.85
2017-09-04T01:06:13.347Z,18.91
2017-09-04T01:06:41.253Z,18.86
2017-09-04T01:07:09.379Z,18.85
2017-09-04T01:07:37.302Z,18.89
2017-09-04T01:08:05.400Z,18.68
2017-09-04T01:08:33.215Z,18.68
2017-09-04T01:09:01.056Z,18.71
2017-09-04T01:09:28.857Z,18.68
2017-09-04T01:12:15.627Z,18.7
2017-09-04T01:12:44.186Z,18.66
2017-09-04T01:13:12.319Z,18.64
2017-09-04T01:13:40.158Z,18.67
2017-09-04T01:14:08.312Z,18.63
2017-09-04T01:14:36.376Z,18.61
2017-09-04T01:15:04.498Z,18.55
2017-09-04T01:15:32.517Z,18.53
2017-09-04T01:16:00.648Z,18.55
2017-09-04T01:16:28.663Z,18.6
2017-09-04T01:16:56.785Z,18.53
2017-09-04T01:17:24.896Z,18.57
2017-09-04T01:17:53.033Z,18.63
2017-09-04T01:18:20.952Z,18.58
2017-09-04T01:18:48.959Z,18.61
2017-09-04T01:19:16.855Z,18.53
2017-09-04T01:19:44.970Z,18.61
2017-09-04T01:20:13.008Z,18.61
2017-09-04T01:20:41.132Z,18.68
2017-09-04T01:21:09.164Z,18.67
2017-09-04T01:21:37.215Z,18.63
2017-09-04T01:22:05.326Z,18.67
2017-09-04T01:22:33.359Z,18.67
2017-09-04T01:23:01.489Z,18.63
2017-09-04T01:23:29.402Z,18.61
2017-09-04T01:23:57.519Z,18.63
2017-09-04T01:24:25.566Z,18.6
2017-09-04T01:24:53.679Z,18.63
2017-09-04T01:25:21.611Z,18.53
2017-09-04T01:25:49.417Z,18.51
2017-09-04T01:26:17.531Z,18.49
2017-09-04T01:26:45.444Z,18.49
2017-09-04T01:27:13.607Z,18.52
2017-09-04T01:27:41.748Z,18.48
2017-09-04T01:28:09.887Z,18.41
2017-09-04T01:28:37.804Z,18.42
2017-09-04T01:29:05.808Z,18.39
2017-09-04T01:29:33.819Z,18.37
2017-09-04T01:30:01.752Z,18.36
2017-09-04T01:30:29.856Z,18.43
2017-09-04T01:30:57.954Z,18.46
2017-09-04T01:31:25.989Z,18.34
2017-09-04T01:31:54.016Z,18.36
2017-09-04T01:32:22.138Z,18.37
2017-09-04T01:32:50.051Z,18.28
2017-09-04T01:33:18.200Z,18.31
2017-09-04T01:33:46.319Z,18.31
2017-09-04T01:34:14.441Z,18.36
2017-09-04T01:34:42.486Z,18.33
2017-09-04T01:35:10.504Z,18.33
2017-09-04T01:35:38.422Z,18.31
2017-09-04T01:36:06.348Z,18.36
2017-09-04T01:36:34.480Z,18.34
2017-09-04T01:37:02.502Z,18.41
2017-09-04T01:37:30.636Z,18.39
2017-09-04T01:37:58.665Z,18.34
2017-09-04T01:38:26.675Z,18.36
2017-09-04T01:38:54.807Z,18.3
2017-09-04T01:39:22.952Z,18.34
2017-09-04T01:39:50.904Z,18.27
2017-09-04T01:40:19.023Z,18.21
2017-09-04T01:40:47.153Z,18.37
2017-09-04T01:41:15.277Z,18.39
2017-09-04T01:41:43.408Z,18.39
2017-09-04T01:42:11.315Z,18.24
2017-09-04T01:42:39.665Z,18.27
2017-09-04T01:43:07.779Z,18.36
2017-09-04T01:43:35.796Z,18.36
2017-09-04T01:44:03.802Z,18.31
2017-09-04T01:44:31.851Z,18.26
2017-09-04T01:44:59.769Z,18.37
2017-09-04T01:45:27.701Z,18.19
2017-09-04T01:45:55.599Z,18.24
2017-09-04T01:46:23.698Z,18.18
2017-09-04T01:46:51.413Z,18.21
2017-09-04T01:47:19.533Z,18.19
2017-09-04T01:47:47.741Z,18.19
2017-09-04T01:48:15.656Z,18.27
2017-09-04T01:48:43.799Z,18.21
2017-09-04T01:49:11.723Z,18.16
2017-09-04T01:49:39.747Z,18.11
2017-09-04T01:50:07.555Z,18.08
2017-09-04T01:50:35.681Z,18.09
2017-09-04T01:51:03.698Z,18.12
2017-09-04T01:51:31.822Z,18.06
2017-09-04T01:51:59.753Z,18.11
2017-09-04T01:52:27.683Z,18.12
2017-09-04T01:52:55.809Z,18.05
2017-09-04T01:53:23.941Z,18.19
2017-09-04T01:53:51.840Z,18.18
2017-09-04T01:54:19.956Z,18.06
2017-09-04T01:54:48.085Z,18.15
2017-09-04T01:55:16.107Z,18.13
2017-09-04T01:55:44.242Z,18.18
2017-09-04T01:56:12.370Z,18.12
2017-09-04T01:56:40.402Z,18.16
2017-09-04T01:57:08.538Z,18.11
2017-09-04T01:57:36.666Z,18.12
2017-09-04T01:58:04.658Z,18.12
2017-09-04T01:58:32.691Z,18.12
2017-09-04T01:59:00.827Z,18.11
2017-09-04T01:59:28.842Z,18.06
2017-09-04T01:59:56.839Z,18.12
2017-09-04T02:00:24.949Z,18.06
2017-09-04T02:00:52.992Z,18.08
2017-09-04T02:01:20.928Z,18.05
2017-09-04T02:01:48.995Z,18.03
2017-09-04T02:02:16.906Z,18.03
2017-09-04T02:02:45.020Z,18.05
2017-09-04T02:03:13.156Z,18.06
2017-09-04T02:03:41.094Z,18.06
2017-09-04T02:04:08.984Z,18.11
2017-09-04T02:04:37.101Z,18.08
2017-09-04T02:05:05.208Z,18.13
2017-09-04T02:05:33.154Z,18.18
2017-09-04T02:06:01.170Z,18.13
2017-09-04T02:06:29.171Z,18.12
2017-09-04T02:06:57.096Z,18.09
2017-09-04T02:07:25.016Z,18.16
2017-09-04T02:07:53.187Z,18.09
2017-09-04T02:08:21.337Z,18.15
2017-09-04T02:08:49.456Z,18.09
2017-09-04T02:09:17.375Z,18.12
2017-09-04T02:09:45.411Z,18.11
2017-09-04T02:10:13.526Z,18.11
2017-09-04T02:10:41.569Z,18.08
2017-09-04T02:11:09.591Z,18.08
2017-09-04T02:11:37.701Z,18.02
2017-09-04T02:12:05.738Z,18.02
2017-09-04T02:12:33.884Z,18.05
2017-09-04T02:13:01.912Z,18
2017-09-04T02:13:29.946Z,18
2017-09-04T02:13:57.762Z,17.97
2017-09-04T02:14:25.885Z,17.95
2017-09-04T02:14:53.900Z,17.9
2017-09-04T02:15:21.809Z,17.93
2017-09-04T02:15:49.747Z,17.93
2017-09-04T02:16:17.763Z,17.95
2017-09-04T02:16:45.669Z,17.94
2017-09-04T02:17:13.669Z,17.91
2017-09-04T02:17:41.877Z,17.95
2017-09-04T02:18:10.026Z,17.94
2017-09-04T02:18:38.033Z,17.94
2017-09-04T02:19:06.060Z,17.91
2017-09-04T02:19:34.070Z,17.86
2017-09-04T02:20:02.084Z,17.93
2017-09-04T02:20:29.983Z,17.93
2017-09-04T02:20:58.116Z,17.94
2017-09-04T02:21:26.141Z,17.86
2017-09-04T02:21:54.139Z,17.87
2017-09-04T02:22:22.064Z,17.88
2017-09-04T02:22:50.185Z,17.87
2017-09-04T02:23:18.107Z,17.88
2017-09-04T02:23:46.217Z,17.86
2017-09-04T02:24:14.347Z,17.9
2017-09-04T02:24:42.277Z,17.84
2017-09-04T02:25:10.305Z,17.8
2017-09-04T02:25:38.226Z,17.8
2017-09-04T02:26:06.237Z,17.91
2017-09-04T02:26:34.076Z,17.88
2017-09-04T02:27:02.205Z,17.87
2017-09-04T02:27:30.206Z,17.87
2017-09-04T02:27:58.413Z,17.78
2017-09-04T02:28:26.533Z,17.78
2017-09-04T02:28:54.652Z,17.76
2017-09-04T02:29:22.673Z,17.87
2017-09-04T02:29:50.812Z,17.78
2017-09-04T02:30:18.826Z,17.76
2017-09-04T02:30:46.947Z,17.78
2017-09-04T02:31:14.881Z,17.78
2017-09-04T02:31:42.888Z,17.8
2017-09-04T02:32:10.911Z,17.79
2017-09-04T02:32:38.994Z,17.78
2017-09-04T02:33:06.896Z,17.84
2017-09-04T02:33:34.906Z,17.8
2017-09-04T02:34:02.802Z,17.72
2017-09-04T02:34:30.853Z,17.73
2017-09-04T02:34:58.999Z,17.75
2017-09-04T02:35:27.904Z,17.69
2017-09-04T02:35:55.835Z,17.69
2017-09-04T02:36:23.857Z,17.73
2017-09-04T02:36:51.881Z,17.69
2017-09-04T02:37:19.791Z,17.68
2017-09-04T02:37:47.912Z,17.69
2017-09-04T02:38:15.734Z,17.66
2017-09-04T02:38:43.647Z,17.71
2017-09-04T02:39:11.580Z,17.59
2017-09-04T02:39:39.598Z,17.63
2017-09-04T02:40:07.626Z,17.54
2017-09-04T02:40:36.737Z,17.56
2017-09-04T02:41:04.996Z,17.56
2017-09-04T02:41:33.025Z,17.63
2017-09-04T02:42:01.062Z,17.56
2017-09-04T02:42:29.076Z,17.54
2017-09-04T02:42:56.994Z,17.57
2017-09-04T02:43:25.102Z,17.5
2017-09-04T02:43:53.023Z,17.56
2017-09-04T02:44:21.051Z,17.54
2017-09-04T02:44:49.067Z,17.59
2017-09-04T02:45:17.206Z,17.44
2017-09-04T02:45:45.245Z,17.59
2017-09-04T02:46:13.364Z,17.46
2017-09-04T02:46:41.181Z,17.49
2017-09-04T02:47:09.209Z,17.56
2017-09-04T02:47:37.333Z,17.42
2017-09-04T02:48:05.458Z,17.54
2017-09-04T02:48:33.557Z,17.54
2017-09-04T02:49:01.716Z,17.52
2017-09-04T02:49:29.764Z,17.47
2017-09-04T02:49:57.871Z,17.47
2017-09-04T02:50:25.884Z,17.44
2017-09-04T02:50:53.796Z,17.46
2017-09-04T02:51:21.825Z,17.52
2017-09-04T02:51:49.737Z,17.49
2017-09-04T02:52:17.678Z,17.44
2017-09-04T02:52:45.706Z,17.46
2017-09-04T02:53:13.818Z,17.47
2017-09-04T02:53:41.934Z,17.49
2017-09-04T02:54:10.066Z,17.49
2017-09-04T02:54:38.181Z,17.44
2017-09-04T02:55:06.315Z,17.42
2017-09-04T02:55:34.344Z,17.46
2017-09-04T02:56:02.254Z,17.44
2017-09-04T02:56:30.293Z,17.41
2017-09-04T02:56:58.198Z,17.44
2017-09-04T02:57:26.214Z,17.5
2017-09-04T02:57:54.256Z,17.42
2017-09-04T02:58:22.093Z,17.44
2017-09-04T02:58:50.119Z,17.5
2017-09-04T02:59:18.057Z,17.41
2017-09-04T02:59:46.060Z,17.46
2017-09-04T03:00:14.178Z,17.47
2017-09-04T03:00:42.077Z,17.47
2017-09-04T03:01:10.235Z,17.47
2017-09-04T03:01:38.280Z,17.47
2017-09-04T03:02:06.410Z,17.5
2017-09-04T03:02:34.467Z,17.47
2017-09-04T03:03:02.594Z,17.42
2017-09-04T03:03:30.616Z,17.46
2017-09-04T03:03:58.633Z,17.41
2017-09-04T03:04:26.669Z,17.46
2017-09-04T03:04:54.796Z,17.38
2017-09-04T03:05:22.715Z,17.37
2017-09-04T03:05:50.629Z,17.39
2017-09-04T03:06:18.538Z,17.38
2017-09-04T03:06:46.361Z,17.35
2017-09-04T03:07:14.406Z,17.34
2017-09-04T03:07:42.427Z,17.35
2017-09-04T03:08:10.475Z,17.35
2017-09-04T03:08:38.518Z,17.38
2017-09-04T03:09:06.622Z,17.37
2017-09-04T03:09:34.658Z,17.32
2017-09-04T03:10:02.606Z,17.31
2017-09-04T03:10:30.516Z,17.31
2017-09-04T03:10:58.642Z,17.37
2017-09-04T03:11:26.732Z,17.37
2017-09-04T03:11:54.854Z,17.39
2017-09-04T03:12:22.960Z,17.28
2017-09-04T03:12:50.988Z,17.34
2017-09-04T03:13:19.111Z,17.32
2017-09-04T03:13:47.241Z,17.39
2017-09-04T03:14:15.154Z,17.35
2017-09-04T03:14:43.148Z,17.38
2017-09-04T03:15:11.086Z,17.3
2017-09-04T03:15:38.859Z,17.3
2017-09-04T03:16:06.765Z,17.34
2017-09-04T03:16:34.815Z,17.39
2017-09-04T03:17:02.820Z,17.31
2017-09-04T03:17:31.632Z,17.32
2017-09-04T03:17:59.729Z,17.32
2017-09-04T03:18:27.837Z,17.34
2017-09-04T03:18:55.844Z,17.3
2017-09-04T03:19:23.976Z,17.32
2017-09-04T03:19:52.088Z,17.28
2017-09-04T03:20:20.124Z,17.32
2017-09-04T03:20:48.266Z,17.31
2017-09-04T03:21:16.181Z,17.32
2017-09-04T03:21:44.186Z,17.37
2017-09-04T03:22:12.218Z,17.38
2017-09-04T03:22:40.040Z,17.32
2017-09-04T03:23:08.258Z,17.34
2017-09-04T03:23:36.284Z,17.34
2017-09-04T03:24:04.302Z,17.37
2017-09-04T03:24:32.406Z,17.37
2017-09-04T03:25:00.426Z,17.31
2017-09-04T03:25:28.448Z,17.39
2017-09-04T03:25:56.344Z,17.35
2017-09-04T03:26:24.352Z,17.32
2017-09-04T03:26:52.386Z,17.38
2017-09-04T03:27:20.527Z,17.3
2017-09-04T03:27:48.446Z,17.34
2017-09-04T03:28:16.443Z,17.34
2017-09-04T03:28:44.471Z,17.37
2017-09-04T03:29:12.570Z,17.31
2017-09-04T03:29:40.493Z,17.3
2017-09-04T03:30:08.526Z,17.37
2017-09-04T03:30:36.634Z,17.35
2017-09-04T03:31:04.755Z,17.31
2017-09-04T03:31:32.862Z,17.38
2017-09-04T03:32:00.992Z,17.3
2017-09-04T03:32:29.019Z,17.31
2017-09-04T03:32:57.032Z,17.35
2017-09-04T03:33:24.846Z,17.39
2017-09-04T03:33:52.983Z,17.35
2017-09-04T03:34:20.805Z,17.34
2017-09-04T03:34:48.957Z,17.32
2017-09-04T03:35:16.997Z,17.32
2017-09-04T03:35:45.119Z,17.35
2017-09-04T03:36:13.121Z,17.32
2017-09-04T03:36:41.045Z,17.39
2017-09-04T03:37:08.985Z,17.37
2017-09-04T03:37:37.009Z,17.31
2017-09-04T03:38:05.263Z,17.35
2017-09-04T03:38:33.309Z,17.32
2017-09-04T03:39:01.351Z,17.32
2017-09-04T03:39:29.397Z,17.34
2017-09-04T03:39:57.431Z,17.32
2017-09-04T03:40:25.453Z,17.32
2017-09-04T03:40:53.359Z,17.32
2017-09-04T03:41:21.364Z,17.31
2017-09-04T03:41:49.491Z,17.31
2017-09-04T03:42:17.597Z,17.32
2017-09-04T03:42:45.615Z,17.3
2017-09-04T03:43:13.671Z,17.32
2017-09-04T03:43:41.654Z,17.35
2017-09-04T03:44:09.776Z,17.31
2017-09-04T03:44:37.913Z,17.31
2017-09-04T03:45:06.054Z,17.39
2017-09-04T03:45:34.054Z,17.35
2017-09-04T03:46:01.958Z,17.37
2017-09-04T03:46:30.073Z,17.32
2017-09-04T03:46:57.867Z,17.37
2017-09-04T03:47:25.789Z,17.3
2017-09-04T03:47:53.707Z,17.34
2017-09-04T03:48:21.719Z,17.37
2017-09-04T03:48:49.849Z,17.39
2017-09-04T03:49:17.789Z,17.31
2017-09-04T03:49:45.832Z,17.39
2017-09-04T03:50:13.724Z,17.38
2017-09-04T03:50:41.734Z,17.39
2017-09-04T03:51:09.737Z,17.37
2017-09-04T03:51:37.709Z,17.28
2017-09-04T03:52:05.805Z,17.38
2017-09-04T03:52:33.895Z,17.3
2017-09-04T03:53:01.927Z,17.28
2017-09-04T03:53:30.130Z,17.34
2017-09-04T03:53:58.259Z,17.28
2017-09-04T03:54:26.385Z,17.24
2017-09-04T03:54:54.430Z,17.24
2017-09-04T03:55:22.329Z,17.3
2017-09-04T03:55:50.498Z,17.27
2017-09-04T03:56:18.393Z,17.28
2017-09-04T03:56:46.317Z,17.24
2017-09-04T03:57:14.340Z,17.2
2017-09-04T03:57:42.382Z,17.22
2017-09-04T03:58:10.322Z,17.23
2017-09-04T03:58:38.360Z,17.27
2017-09-04T03:59:06.294Z,17.22
2017-09-04T03:59:34.303Z,17.2
2017-09-04T04:00:02.250Z,17.2
2017-09-04T04:00:30.272Z,17.19
2017-09-04T04:00:58.285Z,17.13
2017-09-04T04:01:26.419Z,17.22
2017-09-04T04:01:54.440Z,17.19
2017-09-04T04:02:22.544Z,17.22
2017-09-04T04:02:50.678Z,17.17
2017-09-04T04:03:18.696Z,17.17
2017-09-04T04:03:46.716Z,17.16
2017-09-04T04:04:14.518Z,17.1
2017-09-04T04:04:42.570Z,17.09
2017-09-04T04:05:10.689Z,17.1
2017-09-04T04:05:38.836Z,17.19
2017-09-04T04:06:07.572Z,17.14
2017-09-04T04:06:35.828Z,17.19
2017-09-04T04:07:03.935Z,17.13
2017-09-04T04:07:31.930Z,17.14
2017-09-04T04:08:00.068Z,17.14
2017-09-04T04:08:28.073Z,17.04
2017-09-04T04:08:56.100Z,16.98
2017-09-04T04:09:24.238Z,17.16
2017-09-04T04:09:52.187Z,16.99
2017-09-04T04:10:20.310Z,17.04
2017-09-04T04:10:48.451Z,17.07
2017-09-04T04:11:16.580Z,17.01
2017-09-04T04:11:44.691Z,17.09
2017-09-04T04:12:12.709Z,17.05
2017-09-04T04:12:40.741Z,17.05
2017-09-04T04:13:09.084Z,17.01
2017-09-04T04:13:37.106Z,17.04
2017-09-04T04:14:05.224Z,17.07
2017-09-04T04:14:33.334Z,17.05
2017-09-04T04:15:01.466Z,17.05
2017-09-04T04:15:29.474Z,17.05
2017-09-04T04:15:57.495Z,17.04
2017-09-04T04:16:25.619Z,17.01
2017-09-04T04:16:53.652Z,16.98
2017-09-04T04:17:21.756Z,16.97
2017-09-04T04:17:49.683Z,17.01
2017-09-04T04:18:17.782Z,16.91
2017-09-04T04:18:45.803Z,16.97
2017-09-04T04:19:13.913Z,16.98
2017-09-04T04:19:41.942Z,16.95
2017-09-04T04:20:10.059Z,16.98
2017-09-04T04:20:38.108Z,16.92
2017-09-04T04:21:06.152Z,16.87
2017-09-04T04:21:34.065Z,16.94
2017-09-04T04:22:02.105Z,16.87
2017-09-04T04:22:30.127Z,16.86
2017-09-04T04:22:58.275Z,16.92
2017-09-04T04:23:26.600Z,16.92
2017-09-04T04:23:54.582Z,16.84
2017-09-04T04:24:22.497Z,16.89
2017-09-04T04:24:50.516Z,16.86
2017-09-04T04:25:18.669Z,16.92
2017-09-04T04:25:46.623Z,16.95
2017-09-04T04:26:14.741Z,16.87
2017-09-04T04:26:42.863Z,16.89
2017-09-04T04:27:10.885Z,16.89
2017-09-04T04:27:38.806Z,16.86
2017-09-04T04:28:06.850Z,16.91
2017-09-04T04:28:35.063Z,16.82
2017-09-04T04:29:03.098Z,16.86
2017-09-04T04:29:31.036Z,16.83
2017-09-04T04:29:58.947Z,16.84
2017-09-04T04:30:26.959Z,16.87
2017-09-04T04:30:54.982Z,16.86
2017-09-04T04:31:23.022Z,16.86
2017-09-04T04:31:51.150Z,16.86
2017-09-04T04:32:19.104Z,16.87
2017-09-04T04:32:47.230Z,16.82
2017-09-04T04:33:15.259Z,16.84
2017-09-04T04:33:43.384Z,16.8
2017-09-04T04:34:11.514Z,16.79
2017-09-04T04:34:39.523Z,16.83
2017-09-04T04:35:07.550Z,16.8
2017-09-04T04:35:35.542Z,16.77
2017-09-04T04:36:03.543Z,16.82
2017-09-04T04:36:31.651Z,16.8
2017-09-04T04:36:59.801Z,16.79
2017-09-04T04:37:27.710Z,16.79
2017-09-04T04:37:55.823Z,16.77
2017-09-04T04:38:23.835Z,16.84
2017-09-04T04:38:51.945Z,16.77
2017-09-04T04:39:20.065Z,16.74
2017-09-04T04:39:48.177Z,16.74
2017-09-04T04:40:16.094Z,16.76
2017-09-04T04:40:44.037Z,16.77
2017-09-04T04:41:12.053Z,16.8
2017-09-04T04:41:40.081Z,16.74
2017-09-04T04:42:08.190Z,16.83
2017-09-04T04:42:36.107Z,16.8
2017-09-04T04:43:04.120Z,16.69
2017-09-04T04:43:32.304Z,16.73
2017-09-04T04:44:00.311Z,16.74
2017-09-04T04:44:28.338Z,16.73
2017-09-04T04:44:56.156Z,16.77
2017-09-04T04:45:24.267Z,16.74
2017-09-04T04:45:52.167Z,16.77
2017-09-04T04:46:20.222Z,16.79
2017-09-04T04:46:48.342Z,16.8
2017-09-04T04:47:16.350Z,16.79
2017-09-04T04:47:44.377Z,16.8
2017-09-04T04:48:12.397Z,16.77
2017-09-04T04:48:40.519Z,16.77
2017-09-04T04:49:08.539Z,16.77
2017-09-04T04:49:36.570Z,16.77
2017-09-04T04:50:04.514Z,16.79
2017-09-04T04:50:32.488Z,16.77
2017-09-04T04:51:00.484Z,16.76
2017-09-04T04:51:28.514Z,16.77
2017-09-04T04:51:56.660Z,16.66
2017-09-04T04:52:24.699Z,16.73
2017-09-04T04:52:52.728Z,16.65
2017-09-04T04:53:21.181Z,16.68
2017-09-04T04:53:49.186Z,16.68
2017-09-04T04:54:16.973Z,16.58
2017-09-04T04:54:45.100Z,16.61
2017-09-04T04:55:13.139Z,16.64
2017-09-04T04:55:41.155Z,16.58
2017-09-04T04:56:09.143Z,16.57
2017-09-04T04:56:37.179Z,16.55
2017-09-04T04:57:05.193Z,16.65
2017-09-04T04:57:33.186Z,16.49
2017-09-04T04:58:01.220Z,16.5
2017-09-04T04:58:29.348Z,16.61
2017-09-04T04:58:57.363Z,16.59
2017-09-04T04:59:25.477Z,16.54
2017-09-04T04:59:53.397Z,16.58
2017-09-04T05:00:22.430Z,16.58
2017-09-04T05:00:50.561Z,16.5
2017-09-04T05:01:18.681Z,16.55
2017-09-04T05:01:46.685Z,16.57
2017-09-04T05:02:14.604Z,16.54
2017-09-04T05:02:42.621Z,16.54
2017-09-04T05:03:10.669Z,16.58
2017-09-04T05:03:38.593Z,16.58
2017-09-04T05:04:06.510Z,16.59
2017-09-04T05:04:34.535Z,16.58
2017-09-04T05:05:02.455Z,16.57
2017-09-04T05:05:30.387Z,16.55
2017-09-04T05:05:58.488Z,16.61
2017-09-04T05:06:26.592Z,16.58
2017-09-04T05:06:54.629Z,16.57
2017-09-04T05:07:22.544Z,16.57
2017-09-04T05:07:50.480Z,16.5
2017-09-04T05:08:18.499Z,16.5
2017-09-04T05:08:46.724Z,16.44
2017-09-04T05:09:14.785Z,16.5
2017-09-04T05:09:42.686Z,16.49
2017-09-04T05:10:10.784Z,16.41
2017-09-04T05:10:38.905Z,16.44
2017-09-04T05:11:07.011Z,16.41
2017-09-04T05:11:35.131Z,16.29
2017-09-04T05:12:03.041Z,16.36
2017-09-04T05:12:30.953Z,16.37
2017-09-04T05:12:58.785Z,16.32
2017-09-04T05:13:27.002Z,16.32
2017-09-04T05:13:55.137Z,16.25
2017-09-04T05:14:23.359Z,16.32
2017-09-04T05:14:51.416Z,16.26
2017-09-04T05:15:19.304Z,16.29
2017-09-04T05:15:47.357Z,16.28
2017-09-04T05:16:15.182Z,16.34
2017-09-04T05:16:43.212Z,16.32
2017-09-04T05:17:11.245Z,16.28
2017-09-04T05:17:39.373Z,16.32
2017-09-04T05:18:07.518Z,16.26
2017-09-04T05:18:35.558Z,16.31
2017-09-04T05:19:03.545Z,16.26
2017-09-04T05:19:31.552Z,16.29
2017-09-04T05:19:59.468Z,16.29
2017-09-04T05:20:27.581Z,16.24
2017-09-04T05:20:55.413Z,16.31
2017-09-04T05:21:23.530Z,16.21
2017-09-04T05:21:51.670Z,16.28
2017-09-04T05:22:19.690Z,16.29
2017-09-04T05:22:47.719Z,16.29
2017-09-04T05:23:15.862Z,16.28
2017-09-04T05:23:44.221Z,16.28
2017-09-04T05:24:12.261Z,16.25
2017-09-04T05:24:40.246Z,16.17
2017-09-04T05:25:08.250Z,16.18
2017-09-04T05:25:36.273Z,16.22
2017-09-04T05:26:04.267Z,16.25
2017-09-04T05:26:32.199Z,16.18
2017-09-04T05:27:00.143Z,16.1
2017-09-04T05:27:28.139Z,16.24
2017-09-04T05:27:56.056Z,16.12
2017-09-04T05:28:23.987Z,16.09
2017-09-04T05:28:52.098Z,16.1
2017-09-04T05:29:20.123Z,16.1
2017-09-04T05:29:47.943Z,16.06
2017-09-04T05:30:16.101Z,16.17
2017-09-04T05:30:44.240Z,16.08
2017-09-04T05:31:12.255Z,16.09
2017-09-04T05:31:40.274Z,16.09
2017-09-04T05:32:08.289Z,16.05
2017-09-04T05:32:36.321Z,16.06
2017-09-04T05:33:04.300Z,16.09
2017-09-04T05:33:32.441Z,16.06
2017-09-04T05:34:00.466Z,16.1
2017-09-04T05:34:28.378Z,16.06
2017-09-04T05:34:56.490Z,16.1
2017-09-04T05:35:24.377Z,16.09
2017-09-04T05:35:52.507Z,16.06
2017-09-04T05:36:20.642Z,16.05
2017-09-04T05:36:48.682Z,16.06
2017-09-04T05:37:16.685Z,16.09
2017-09-04T05:37:44.696Z,16.06
2017-09-04T05:38:12.814Z,16.12
2017-09-04T05:38:41.098Z,16.05
2017-09-04T05:39:09.238Z,16.09
2017-09-04T05:39:37.261Z,16.06
2017-09-04T05:40:05.271Z,16.06
2017-09-04T05:40:33.305Z,16.09
2017-09-04T05:41:01.321Z,16.05
2017-09-04T05:41:29.334Z,16.06
2017-09-04T05:41:57.332Z,16.09
2017-09-04T05:42:25.450Z,16.03
2017-09-04T05:42:53.565Z,16.03
2017-09-04T05:43:21.603Z,16.03
2017-09-04T05:43:49.844Z,16.03
2017-09-04T05:44:17.861Z,15.99
2017-09-04T05:44:45.991Z,15.98
2017-09-04T05:45:13.894Z,16.02
2017-09-04T05:45:41.902Z,15.99
2017-09-04T05:46:10.044Z,15.99
2017-09-04T05:46:38.067Z,15.98
2017-09-04T05:47:06.001Z,15.92
2017-09-04T05:47:34.105Z,15.92
2017-09-04T05:48:02.150Z,15.96
2017-09-04T05:48:30.256Z,15.92
2017-09-04T05:48:58.378Z,15.91
2017-09-04T05:49:26.312Z,15.85
2017-09-04T05:49:54.302Z,15.87
2017-09-04T05:50:22.438Z,15.83
2017-09-04T05:50:50.457Z,15.83
2017-09-04T05:51:18.506Z,15.85
2017-09-04T05:51:46.555Z,15.84
2017-09-04T05:52:14.444Z,15.8
2017-09-04T05:52:42.358Z,15.8
2017-09-04T05:53:10.248Z,15.83
2017-09-04T05:53:38.271Z,15.84
2017-09-04T05:54:06.747Z,15.83
2017-09-04T05:54:34.760Z,15.83
2017-09-04T05:55:02.770Z,15.83
2017-09-04T05:55:30.577Z,15.85
2017-09-04T05:55:58.703Z,15.85
2017-09-04T05:56:26.830Z,15.73
2017-09-04T05:56:54.761Z,15.85
2017-09-04T05:57:22.804Z,15.8
2017-09-04T05:57:50.844Z,15.84
2017-09-04T05:58:18.989Z,15.78
2017-09-04T05:58:47.116Z,15.87
2017-09-04T05:59:15.252Z,15.83
2017-09-04T05:59:43.298Z,15.85
2017-09-04T06:00:11.123Z,15.85
2017-09-04T06:00:39.024Z,15.78
2017-09-04T06:01:07.024Z,15.85
2017-09-04T06:01:35.131Z,15.81
2017-09-04T06:02:03.460Z,15.76
2017-09-04T06:02:31.498Z,15.73
2017-09-04T06:02:59.524Z,15.73
2017-09-04T06:03:27.606Z,15.72
2017-09-04T06:03:55.617Z,15.78
2017-09-04T06:04:23.649Z,15.76
2017-09-04T06:04:51.661Z,15.69